createdAt,value
2023-04-20T00:00:18.033Z,102491.13
2023-04-20T00:02:45.404Z,102486.03
2023-04-20T00:05:12.657Z,102490.44
2023-04-20T00:07:41.638Z,102482.75
2023-04-20T00:10:09.116Z,102481.91
2023-04-20T00:12:37.426Z,102479.38
2023-04-20T00:15:04.758Z,102474.22
2023-04-20T00:17:31.264Z,102475.13
2023-04-20T00:20:04.989Z,102455.28
2023-04-20T00:22:31.424Z,102458.84
2023-04-20T00:24:57.941Z,102456.31
2023-04-20T00:27:24.436Z,102439.84
2023-04-20T00:29:55.046Z,102447.81
2023-04-20T00:32:21.569Z,102437.63
2023-04-20T00:34:48.429Z,102425.59
2023-04-20T00:37:14.928Z,102424.75
2023-04-20T00:39:41.680Z,102415.25
2023-04-20T00:42:08.873Z,102410.06
2023-04-20T00:44:35.879Z,102407.56
2023-04-20T00:47:02.567Z,102401.56
2023-04-20T00:49:31.057Z,102392.88
2023-04-20T00:52:01.188Z,102398.00
2023-04-20T00:54:28.892Z,102382.38
2023-04-20T00:56:59.549Z,102377.94
2023-04-20T00:59:26.128Z,102374.47
2023-04-20T01:01:52.690Z,102366.72
2023-04-20T01:04:19.878Z,102366.72
2023-04-20T01:06:46.473Z,102364.94
2023-04-20T01:09:14.904Z,102355.34
2023-04-20T01:11:46.251Z,102357.09
2023-04-20T01:14:12.710Z,102351.91
2023-04-20T01:16:41.748Z,102353.59
2023-04-20T01:19:08.208Z,102352.69
2023-04-20T01:21:34.756Z,102344.97
2023-04-20T01:24:01.591Z,102339.81
2023-04-20T01:26:28.318Z,102342.47
2023-04-20T01:28:55.059Z,102337.38
2023-04-20T01:31:21.805Z,102333.09
2023-04-20T01:33:50.790Z,102320.94
2023-04-20T01:36:17.253Z,102329.63
2023-04-20T01:38:43.744Z,102319.19
2023-04-20T01:41:11.129Z,102319.19
2023-04-20T01:43:38.622Z,102311.44
2023-04-20T01:46:05.661Z,102313.25
2023-04-20T01:48:32.574Z,102316.69
2023-04-20T01:50:59.262Z,102301.97
2023-04-20T01:53:26.345Z,102309.72
2023-04-20T01:55:55.209Z,102305.41
2023-04-20T01:58:21.959Z,102309.75
2023-04-20T02:00:51.511Z,102305.41
2023-04-20T02:03:20.897Z,102299.28
2023-04-20T02:05:47.780Z,102299.25
2023-04-20T02:08:14.362Z,102293.03
2023-04-20T02:10:42.315Z,102288.63
2023-04-20T02:13:09.125Z,102285.03
2023-04-20T02:15:37.432Z,102285.81
2023-04-20T02:18:04.438Z,102279.72
2023-04-20T02:20:30.975Z,102270.16
2023-04-20T02:22:57.482Z,102268.34
2023-04-20T02:25:23.996Z,102268.34
2023-04-20T02:27:52.012Z,102260.44
2023-04-20T02:30:18.484Z,102256.06
2023-04-20T02:32:45.042Z,102252.56
2023-04-20T02:35:11.804Z,102242.28
2023-04-20T02:37:39.309Z,102243.19
2023-04-20T02:40:07.226Z,102239.72
2023-04-20T02:42:33.673Z,102229.31
2023-04-20T02:45:00.451Z,102231.81
2023-04-20T02:47:26.993Z,102225.63
2023-04-20T02:49:53.741Z,102222.06
2023-04-20T02:52:20.195Z,102215.91
2023-04-20T02:54:47.429Z,102216.69
2023-04-20T02:57:14.180Z,102220.94
2023-04-20T02:59:41.091Z,102211.31
2023-04-20T03:02:08.031Z,102206.94
2023-04-20T03:04:35.161Z,102209.34
2023-04-20T03:07:02.099Z,102209.34
2023-04-20T03:09:28.969Z,102204.91
2023-04-20T03:11:59.017Z,102209.06
2023-04-20T03:14:25.898Z,102207.19
2023-04-20T03:16:52.863Z,102201.09
2023-04-20T03:19:21.130Z,102192.38
2023-04-20T03:21:50.062Z,102194.06
2023-04-20T03:24:17.310Z,102189.63
2023-04-20T03:26:43.753Z,102185.94
2023-04-20T03:29:11.140Z,102186.78
2023-04-20T03:31:37.651Z,102188.41
2023-04-20T03:34:05.003Z,102190.94
2023-04-20T03:36:32.851Z,102188.31
2023-04-20T03:38:59.298Z,102184.78
2023-04-20T03:41:26.097Z,102180.44
2023-04-20T03:43:52.582Z,102175.22
2023-04-20T03:46:23.122Z,102174.31
2023-04-20T03:48:53.939Z,102173.31
2023-04-20T03:51:21.695Z,102162.03
2023-04-20T03:53:50.806Z,102175.00
2023-04-20T03:56:17.269Z,102167.16
2023-04-20T03:58:43.770Z,102168.00
2023-04-20T04:01:11.007Z,102161.03
2023-04-20T04:03:37.811Z,102151.41
2023-04-20T04:06:04.636Z,102154.03
2023-04-20T04:08:32.863Z,102147.13
2023-04-20T04:11:00.511Z,102151.41
2023-04-20T04:13:29.523Z,102133.09
2023-04-20T04:15:56.073Z,102146.03
2023-04-20T04:18:22.565Z,102141.75
2023-04-20T04:20:50.062Z,102130.50
2023-04-20T04:23:17.014Z,102129.66
2023-04-20T04:25:43.595Z,102127.97
2023-04-20T04:28:10.093Z,102122.78
2023-04-20T04:30:37.208Z,102120.16
2023-04-20T04:33:05.374Z,102118.47
2023-04-20T04:35:33.788Z,102121.91
2023-04-20T04:38:01.026Z,102117.53
2023-04-20T04:40:31.825Z,102108.88
2023-04-20T04:42:58.525Z,102111.50
2023-04-20T04:45:25.360Z,102115.78
2023-04-20T04:47:54.112Z,102107.97
2023-04-20T04:50:22.094Z,102103.59
2023-04-20T04:52:49.136Z,102109.66
2023-04-20T04:55:16.822Z,102099.13
2023-04-20T04:57:43.556Z,102099.91
2023-04-20T05:00:13.088Z,102104.19
2023-04-20T05:02:40.301Z,102104.94
2023-04-20T05:05:09.845Z,102117.00
2023-04-20T05:07:38.661Z,102109.22
2023-04-20T05:10:06.438Z,102109.25
2023-04-20T05:12:34.473Z,102092.88
2023-04-20T05:15:01.369Z,102099.91
2023-04-20T05:17:28.132Z,102103.44
2023-04-20T05:19:54.865Z,102101.69
2023-04-20T05:22:21.306Z,102110.41
2023-04-20T05:24:47.865Z,102107.88
2023-04-20T05:27:14.653Z,102109.66
2023-04-20T05:29:42.791Z,102099.97
2023-04-20T05:32:09.388Z,102100.81
2023-04-20T05:34:36.323Z,102101.59
2023-04-20T05:37:05.618Z,102104.19
2023-04-20T05:39:32.207Z,102105.03
2023-04-20T05:41:58.910Z,102102.41
2023-04-20T05:44:29.609Z,102096.28
2023-04-20T05:46:57.198Z,102104.94
2023-04-20T05:49:24.999Z,102100.50
2023-04-20T05:51:54.397Z,102096.97
2023-04-20T05:54:20.903Z,102094.22
2023-04-20T05:56:47.592Z,102100.16
2023-04-20T05:59:18.661Z,102091.47
2023-04-20T06:01:46.093Z,102093.16
2023-04-20T06:04:12.998Z,102100.91
2023-04-20T06:06:39.860Z,102085.94
2023-04-20T06:09:06.643Z,102084.16
2023-04-20T06:11:37.704Z,102077.09
2023-04-20T06:14:09.237Z,102080.38
2023-04-20T06:16:36.264Z,102074.16
2023-04-20T06:19:02.986Z,102075.97
2023-04-20T06:21:33.101Z,102073.31
2023-04-20T06:23:59.848Z,102075.13
2023-04-20T06:26:29.250Z,102075.13
2023-04-20T06:28:55.970Z,102075.16
2023-04-20T06:31:25.598Z,102075.31
2023-04-20T06:33:53.019Z,102068.38
2023-04-20T06:36:22.388Z,102069.28
2023-04-20T06:38:49.189Z,102070.31
2023-04-20T06:41:16.517Z,102069.44
2023-04-20T06:43:43.368Z,102070.41
2023-04-20T06:49:09.080Z,102058.09
2023-04-20T06:51:43.321Z,102050.13
2023-04-20T06:54:10.484Z,102057.66
2023-04-20T06:56:37.363Z,102054.06
2023-04-20T06:59:04.070Z,102061.19
2023-04-20T07:04:46.321Z,102064.06
2023-04-20T07:09:53.249Z,102074.00
2023-04-20T07:12:22.574Z,102070.66
2023-04-20T07:14:57.836Z,102070.72
2023-04-20T07:17:29.602Z,102067.31
2023-04-20T07:25:32.929Z,102070.31
2023-04-20T07:28:10.529Z,102073.53
2023-04-20T07:34:58.764Z,102079.72
2023-04-20T07:38:43.304Z,102090.47
2023-04-20T07:46:51.527Z,102080.50
2023-04-20T07:48:08.572Z,102084.19
2023-04-20T07:50:46.490Z,102079.16
2023-04-20T07:58:55.331Z,102071.47
2023-04-20T08:01:47.615Z,102086.25
2023-04-20T08:04:20.467Z,102086.25
2023-04-20T08:06:47.648Z,102077.63
2023-04-20T08:09:14.197Z,102071.50
2023-04-20T08:11:41.280Z,102070.34
2023-04-20T08:14:09.317Z,102062.34
2023-04-20T08:16:36.102Z,102057.97
2023-04-20T08:20:51.117Z,102063.97
2023-04-20T08:22:32.854Z,102065.38
2023-04-20T08:25:27.834Z,102055.28
2023-04-20T08:33:29.344Z,102037.59
2023-04-20T08:42:07.478Z,102038.22
2023-04-20T08:44:36.489Z,102036.16
2023-04-20T08:50:35.192Z,102037.63
2023-04-20T09:01:01.716Z,102020.31
2023-04-20T09:04:04.765Z,102017.03
2023-04-20T09:06:31.607Z,102020.00
2023-04-20T09:08:58.147Z,102030.72
2023-04-20T09:11:26.214Z,102025.06
2023-04-20T09:14:04.422Z,102022.78
2023-04-20T09:16:34.941Z,102020.66
2023-04-20T09:19:01.706Z,102016.22
2023-04-20T09:21:29.742Z,102024.19
2023-04-20T09:24:08.909Z,102028.69
2023-04-20T09:26:36.646Z,102022.19
2023-04-20T09:29:04.162Z,102015.47
2023-04-20T09:31:33.233Z,102004.28
2023-04-20T09:34:03.535Z,101996.53
2023-04-20T09:39:41.245Z,101994.75
2023-04-20T09:42:16.923Z,102005.59
2023-04-20T09:44:58.222Z,101996.78
2023-04-20T09:47:41.468Z,101990.13
2023-04-20T09:50:24.675Z,102002.56
2023-04-20T09:52:54.273Z,101994.56
2023-04-20T09:55:21.204Z,101999.78
2023-04-20T09:57:50.117Z,101993.00
2023-04-20T10:00:26.363Z,101989.94
2023-04-20T10:02:53.296Z,101990.53
2023-04-20T10:05:36.409Z,101983.44
2023-04-20T10:08:04.709Z,101978.50
2023-04-20T10:10:47.694Z,101988.94
2023-04-20T10:13:22.059Z,101979.38
2023-04-20T10:16:10.372Z,101974.31
2023-04-20T10:18:37.041Z,101982.03
2023-04-20T10:21:10.886Z,101976.06
2023-04-20T10:23:58.718Z,101977.59
2023-04-20T10:26:45.581Z,101964.75
2023-04-20T10:29:25.122Z,101974.88
2023-04-20T10:31:51.953Z,101968.63
2023-04-20T10:34:36.364Z,101972.16
2023-04-20T10:37:17.939Z,101966.06
2023-04-20T10:39:48.572Z,101967.66
2023-04-20T10:42:17.422Z,101962.25
2023-04-20T10:46:01.931Z,101963.22
2023-04-20T10:52:42.575Z,101960.50
2023-04-20T10:55:19.413Z,101962.34
2023-04-20T10:57:46.433Z,101956.72
2023-04-20T11:00:17.908Z,101942.97
2023-04-20T11:02:52.464Z,101935.13
2023-04-20T11:05:20.672Z,101931.06
2023-04-20T11:08:01.194Z,101933.16
2023-04-20T11:10:41.678Z,101922.75
2023-04-20T11:13:22.728Z,101922.88
2023-04-20T11:15:51.634Z,101924.69
2023-04-20T11:18:18.864Z,101926.25
2023-04-20T11:20:55.794Z,101911.66
2023-04-20T11:23:27.589Z,101926.59
2023-04-20T11:26:01.257Z,101924.13
2023-04-20T11:28:34.585Z,101918.16
2023-04-20T11:31:01.956Z,101909.47
2023-04-20T11:33:32.625Z,101907.84
2023-04-20T11:36:02.030Z,101906.97
2023-04-20T11:38:34.004Z,101910.34
2023-04-20T11:41:04.850Z,101905.00
2023-04-20T11:43:35.972Z,101905.00
2023-04-20T11:46:03.141Z,101896.63
2023-04-20T11:48:32.968Z,101901.47
2023-04-20T11:51:07.775Z,101899.81
2023-04-20T11:53:34.781Z,101894.41
2023-04-20T11:56:01.351Z,101898.66
2023-04-20T11:58:35.257Z,101904.16
2023-04-20T12:01:03.930Z,101902.34
2023-04-20T12:03:33.735Z,101899.66
2023-04-20T12:06:03.229Z,101912.59
2023-04-20T12:08:51.928Z,101905.94
2023-04-20T12:11:34.135Z,101900.59
2023-04-20T12:14:10.259Z,101909.28
2023-04-20T12:16:44.397Z,101902.97
2023-04-20T12:19:13.202Z,101904.16
2023-04-20T12:21:42.167Z,101899.97
2023-04-20T12:24:08.844Z,101905.25
2023-04-20T12:31:43.275Z,101892.53
2023-04-20T12:34:12.817Z,101885.13
2023-04-20T12:36:41.593Z,101879.69
2023-04-20T12:39:08.151Z,101880.00
2023-04-20T12:41:34.969Z,101884.25
2023-04-20T12:44:13.572Z,101883.59
2023-04-20T12:47:29.411Z,101889.09
2023-04-20T12:49:37.632Z,101876.97
2023-04-20T12:52:17.457Z,101876.81
2023-04-20T12:54:46.275Z,101871.19
2023-04-20T12:57:17.526Z,101873.25
2023-04-20T12:59:44.039Z,101872.13
2023-04-20T13:02:11.341Z,101867.47
2023-04-20T13:04:41.630Z,101869.75
2023-04-20T13:07:08.561Z,101875.44
2023-04-20T13:09:35.464Z,101869.38
2023-04-20T13:12:02.052Z,101871.22
2023-04-20T13:14:28.729Z,101875.31
2023-04-20T13:16:55.792Z,101874.53
2023-04-20T13:19:23.029Z,101881.41
2023-04-20T13:21:52.333Z,101880.41
2023-04-20T13:24:20.669Z,101870.50
2023-04-20T13:26:47.414Z,101865.59
2023-04-20T13:29:15.463Z,101871.66
2023-04-20T13:31:42.136Z,101878.75
2023-04-20T13:34:09.814Z,101866.00
2023-04-20T13:36:36.489Z,101868.28
2023-04-20T13:39:03.734Z,101853.97
2023-04-20T13:41:30.495Z,101849.47
2023-04-20T13:43:58.182Z,101855.03
2023-04-20T13:46:24.870Z,101847.94
2023-04-20T13:48:51.758Z,101852.88
2023-04-20T13:51:18.464Z,101849.72
2023-04-20T13:53:55.767Z,101849.31
2023-04-20T13:56:22.567Z,101839.59
2023-04-20T13:58:56.916Z,101841.91
2023-04-20T14:01:25.962Z,101845.03
2023-04-20T14:03:56.056Z,101848.78
2023-04-20T14:06:24.252Z,101834.59
2023-04-20T14:08:51.532Z,101832.50
2023-04-20T14:12:07.961Z,101832.81
2023-04-20T14:15:51.256Z,101832.44
2023-04-20T14:21:00.678Z,101823.34
2023-04-20T14:23:27.191Z,101822.31
2023-04-20T14:25:56.222Z,101818.81
2023-04-20T14:32:35.259Z,101823.13
2023-04-20T14:35:04.675Z,101822.34
2023-04-20T14:37:32.530Z,101823.78
2023-04-20T14:39:59.202Z,101817.22
2023-04-20T14:42:28.676Z,101818.03
2023-04-20T14:44:57.963Z,101823.84
2023-04-20T14:47:24.757Z,101806.38
2023-04-20T14:49:51.827Z,101812.16
2023-04-20T14:52:19.717Z,101803.50
2023-04-20T14:54:46.171Z,101789.97
2023-04-20T14:57:13.704Z,101801.31
2023-04-20T14:59:41.507Z,101806.22
2023-04-20T15:02:08.049Z,101807.16
2023-04-20T15:04:35.432Z,101805.41
2023-04-20T15:07:04.130Z,101807.53
2023-04-20T15:09:32.685Z,101798.41
2023-04-20T15:12:01.868Z,101798.25
2023-04-20T15:14:28.807Z,101801.47
2023-04-20T15:16:55.408Z,101795.41
2023-04-20T15:19:25.253Z,101795.13
2023-04-20T15:21:51.780Z,101800.81
2023-04-20T15:24:21.060Z,101789.47
2023-04-20T15:26:47.785Z,101790.47
2023-04-20T15:29:26.744Z,101783.34
2023-04-20T15:31:53.362Z,101793.50
2023-04-20T15:34:20.244Z,101786.59
2023-04-20T15:36:57.247Z,101779.66
2023-04-20T15:39:23.890Z,101774.72
2023-04-20T15:42:23.109Z,101774.06
2023-04-20T15:44:51.344Z,101780.34
2023-04-20T15:47:20.978Z,101774.78
2023-04-20T15:49:47.871Z,101781.44
2023-04-20T15:52:15.452Z,101781.16
2023-04-20T15:54:41.907Z,101789.13
2023-04-20T15:57:39.047Z,101772.72
2023-04-20T16:00:06.960Z,101767.50
2023-04-20T16:02:33.865Z,101773.47
2023-04-20T16:05:06.018Z,101765.56
2023-04-20T16:07:35.310Z,101765.44
2023-04-20T16:10:10.178Z,101758.63
2023-04-20T16:12:38.353Z,101766.06
2023-04-20T16:15:06.002Z,101758.69
2023-04-20T16:17:34.868Z,101767.13
2023-04-20T16:20:01.626Z,101773.97
2023-04-20T16:22:29.721Z,101780.50
2023-04-20T16:24:56.935Z,101787.38
2023-04-20T16:27:29.937Z,101788.03
2023-04-20T16:29:56.754Z,101782.41
2023-04-20T16:32:27.030Z,101784.25
2023-04-20T16:35:00.001Z,101782.38
2023-04-20T16:37:26.668Z,101774.63
2023-04-20T16:39:53.480Z,101779.06
2023-04-20T16:42:20.191Z,101771.50
2023-04-20T16:44:46.767Z,101767.53
2023-04-20T16:47:21.295Z,101767.28
2023-04-20T16:49:48.050Z,101771.16
2023-04-20T16:52:16.308Z,101771.03
2023-04-20T16:54:44.142Z,101763.91
2023-04-20T16:57:10.926Z,101760.84
2023-04-20T16:59:37.440Z,101762.94
2023-04-20T17:02:04.610Z,101761.66
2023-04-20T17:04:36.920Z,101768.91
2023-04-20T17:07:04.622Z,101768.53
2023-04-20T17:09:31.548Z,101767.00
2023-04-20T17:11:59.392Z,101774.34
2023-04-20T17:14:26.350Z,101770.03
2023-04-20T17:16:57.385Z,101779.81
2023-04-20T17:19:39.197Z,101775.47
2023-04-20T17:22:07.427Z,101771.88
2023-04-20T17:24:35.419Z,101767.56
2023-04-20T17:27:02.441Z,101775.47
2023-04-20T17:29:34.926Z,101770.88
2023-04-20T17:32:03.670Z,101776.91
2023-04-20T17:34:32.478Z,101762.75
2023-04-20T17:36:59.400Z,101775.88
2023-04-20T17:39:27.353Z,101777.78
2023-04-20T17:41:54.652Z,101770.78
2023-04-20T17:44:24.773Z,101781.34
2023-04-20T17:46:51.555Z,101781.44
2023-04-20T17:49:18.395Z,101782.44
2023-04-20T17:51:46.954Z,101779.97
2023-04-20T17:54:17.145Z,101787.84
2023-04-20T17:56:47.020Z,101795.44
2023-04-20T17:59:13.956Z,101801.06
2023-04-20T18:01:40.849Z,101795.25
2023-04-20T18:04:08.880Z,101804.25
2023-04-20T18:06:36.015Z,101795.69
2023-04-20T18:09:05.218Z,101810.41
2023-04-20T18:11:34.046Z,101799.00
2023-04-20T18:14:08.397Z,101798.38
2023-04-20T18:16:35.109Z,101796.97
2023-04-20T18:19:01.921Z,101801.53
2023-04-20T18:21:29.668Z,101796.63
2023-04-20T18:31:20.163Z,101798.22
2023-04-20T18:34:24.680Z,101786.25
2023-04-20T18:36:55.105Z,101795.19
2023-04-20T18:42:04.788Z,101793.00
2023-04-20T18:44:43.358Z,101796.78
2023-04-20T18:50:02.750Z,101802.94
2023-04-20T18:52:37.261Z,101803.84
2023-04-20T18:55:05.268Z,101809.19
2023-04-20T18:57:34.427Z,101807.56
2023-04-20T19:00:01.509Z,101807.59
2023-04-20T19:02:29.515Z,101809.31
2023-04-20T19:05:01.747Z,101818.72
2023-04-20T19:07:37.717Z,101824.81
2023-04-20T19:10:04.769Z,101817.94
2023-04-20T19:12:32.760Z,101832.94
2023-04-20T19:15:02.883Z,101828.06
2023-04-20T19:17:30.152Z,101833.31
2023-04-20T19:19:57.547Z,101838.81
2023-04-20T19:22:28.320Z,101838.22
2023-04-20T19:24:55.467Z,101827.75
2023-04-20T19:27:22.232Z,101836.72
2023-04-20T19:29:51.830Z,101840.69
2023-04-20T19:32:25.086Z,101847.06
2023-04-20T19:34:57.615Z,101838.56
2023-04-20T19:37:24.080Z,101825.63
2023-04-20T19:39:52.992Z,101822.25
2023-04-20T19:42:22.820Z,101830.28
2023-04-20T19:44:51.415Z,101827.78
2023-04-20T19:47:18.987Z,101819.09
2023-04-20T19:49:46.004Z,101834.09
2023-04-20T19:52:12.760Z,101831.69
2023-04-20T19:54:39.540Z,101833.84
2023-04-20T19:57:07.580Z,101832.28
2023-04-20T19:59:36.675Z,101829.84
2023-04-20T20:02:03.713Z,101842.22
2023-04-20T20:04:31.734Z,101847.56
2023-04-20T20:06:59.184Z,101842.47
2023-04-20T20:09:26.323Z,101852.16
2023-04-20T20:11:52.808Z,101846.97
2023-04-20T20:14:21.560Z,101842.09
2023-04-20T20:16:50.388Z,101841.38
2023-04-20T20:19:18.520Z,101847.66
2023-04-20T20:21:45.294Z,101839.97
2023-04-20T20:24:38.159Z,101850.56
2023-04-20T20:27:05.012Z,101826.28
2023-04-20T20:29:32.951Z,101826.31
2023-04-20T20:31:59.550Z,101824.59
2023-04-20T20:34:26.292Z,101821.19
2023-04-20T20:36:53.796Z,101819.63
2023-04-20T20:39:21.414Z,101811.78
2023-04-20T20:41:51.587Z,101821.09
2023-04-20T20:44:18.868Z,101816.09
2023-04-20T20:46:46.350Z,101817.91
2023-04-20T20:49:12.810Z,101814.53
2023-04-20T20:51:39.314Z,101811.00
2023-04-20T20:54:05.809Z,101807.66
2023-04-20T20:56:32.372Z,101804.19
2023-04-20T20:59:05.754Z,101805.25
2023-04-20T21:01:33.854Z,101805.28
2023-04-20T21:04:03.144Z,101802.81
2023-04-20T21:06:29.745Z,101808.94
2023-04-20T21:08:56.792Z,101792.56
2023-04-20T21:11:24.483Z,101794.38
2023-04-20T21:13:51.506Z,101803.13
2023-04-20T21:16:18.024Z,101791.97
2023-04-20T21:18:44.648Z,101792.94
2023-04-20T21:21:14.315Z,101783.53
2023-04-20T21:23:41.135Z,101791.44
2023-04-20T21:26:08.267Z,101807.16
2023-04-20T21:28:34.912Z,101808.00
2023-04-20T21:31:01.397Z,101808.00
2023-04-20T21:33:28.617Z,101796.06
2023-04-20T21:35:56.563Z,101797.03
2023-04-20T21:38:24.986Z,101790.09
2023-04-20T21:40:51.485Z,101790.16
2023-04-20T21:43:17.973Z,101795.38
2023-04-20T21:45:44.552Z,101786.91
2023-04-20T21:48:11.195Z,101788.72
2023-04-20T21:50:41.100Z,101793.09
2023-04-20T21:53:07.692Z,101787.91
2023-04-20T21:55:34.913Z,101796.75
2023-04-20T21:58:02.162Z,101798.47
2023-04-20T22:00:29.167Z,101801.09
2023-04-20T22:02:56.517Z,101804.56
2023-04-20T22:05:23.655Z,101805.47
2023-04-20T22:07:51.278Z,101809.94
2023-04-20T22:10:17.783Z,101814.25
2023-04-20T22:12:44.730Z,101804.59
2023-04-20T22:15:17.175Z,101808.03
2023-04-20T22:17:46.774Z,101805.53
2023-04-20T22:20:15.661Z,101816.84
2023-04-20T22:22:42.116Z,101815.13
2023-04-20T22:26:05.480Z,101796.13
2023-04-20T22:28:38.123Z,101795.31
2023-04-20T22:44:08.012Z,101784.38
2023-04-20T22:46:27.517Z,101778.25
2023-04-20T22:48:54.515Z,101777.47
2023-04-20T22:51:21.254Z,101777.63
2023-04-20T22:53:47.941Z,101770.59
2023-04-20T22:56:14.631Z,101769.69
2023-04-20T22:58:41.028Z,101766.34
2023-04-20T23:01:07.710Z,101761.13
2023-04-20T23:03:34.380Z,101764.66
2023-04-20T23:06:01.166Z,101759.47
2023-04-20T23:08:29.570Z,101754.22
2023-04-20T23:10:56.111Z,101746.59
2023-04-20T23:13:26.296Z,101746.63
2023-04-20T23:15:55.516Z,101737.00
2023-04-20T23:18:21.999Z,101740.44
2023-04-20T23:20:50.802Z,101726.50
2023-04-20T23:23:19.849Z,101724.81
2023-04-20T23:25:46.673Z,101723.03
2023-04-20T23:28:16.035Z,101706.59
2023-04-20T23:30:42.779Z,101687.63
2023-04-20T23:33:13.490Z,101679.78
2023-04-20T23:35:40.041Z,101680.63
2023-04-20T23:38:06.810Z,101680.59
2023-04-20T23:40:33.337Z,101691.88
2023-04-20T23:42:59.975Z,101686.66
2023-04-20T23:45:26.508Z,101695.44
2023-04-20T23:47:53.358Z,101704.97
2023-04-20T23:50:20.016Z,101703.25
2023-04-20T23:52:46.518Z,101693.88
2023-04-20T23:55:13.066Z,101687.00
2023-04-20T23:57:39.628Z,101680.22
